Aeroporto :
LOGIN :

Iscrizione | Disclaimer

   EN    FR    IT 

 










Sommario :    VFR   VFR Marginale   IFR   IFR Intensivo   IFR Molto Intensivo
Visibilità : 
Base nubi : 
>= 8 km
>= 3000ft
5 / 8 km
1000 / 3000 ft
1500m / 5 km
500 / 1000 ft
800 / 1500m
200 / 500 ft
< 800m
< 200 ft
Simboli :   Temporali  Nebbia  Neve Forte  Precipitazioni Forti  Vento > 20 kt
SIGMETs :   Varie  Temporali  Ghiacco  Turbolenza  Onda orograficha  Ceneri Vulcaniche






- Altitudine del aeroporto : 10 ft
- Codice IATA : AAL


EKYT - Aalborg

ULTIMO METAR :
  • 200350Z 23004KT 9999 OVC025 06/05 Q1017

METARs OBSOLETI :
  • 200320Z 24006KT 9999 FEW022 06/05 Q1017
  • 200250Z 26006KT 9999 FEW018 06/06 Q1017
  • 200223Z 25007KT 9999 FEW015 OVC022 06/06 Q1016
  • 200204Z 24004KT 7000 FEW014 OVC020 06/06 Q1016
  • 200120Z 21004KT 1200 R08/P1500N R26/P1500N -DZ BR FEW002 OVC004 06/06 Q1016

TAF TAF EKYT
Valido dal 20 a 03 ore il 21 a 03 ore UTC


200207Z 2003/2103 22006KT 9999 BKN030
BECMG 2008/2010 14006KT
BECMG 2013/2016 04006KT
BECMG 2018/2021 3000 RADZ BR BKN005
TEMPO 2021/2103 8000 -RA SCT010 BKN020
BECMG 2100/2103 13015KT



MetMap, La meteo Aeronautica in un colpo d'occhio ! - Copyright ORBIFLY Dicembre 2007 - Disclaimer

ORBIFLY MET'MAP TEAM :

Programmazione e sviluppo : Alexandra Zaïnal
Concezione e sviluppo : Baudouin d'Aumeries
Co-Programmazione e sviluppo : Marc-Olivier Méhu
Supporto tecnico e logistico : Manuel Goepfert
Aiuto per la traduzione : Arnaldo La Scala

Contatto : metmap@orbifly.com




FONTI E CREDITI :

   NOAA